WetterOnline ( http://www.wetteronline.de )

Wetter aktuell Ostseebad Ahrenshoop

Aktuelles Wetter: Barth (7m)

6-stündlich | Neueste Meldungen
Ortszeit Temperatur Wetter
Mi, 19.09. 2:00 13.5° C wolkenlos
Di, 18.09. 20:00 23.2° C wolkenlos
Di, 18.09. 14:00 27.7° C leicht bewölkt
Di, 18.09. 8:00 13.1° C wolkig
Di, 18.09. 2:00 11.3° C -
Mo, 17.09. 20:00 14.7° C -
Mo, 17.09. 14:00 22.3° C -
Mo, 17.09. 8:00 13.9° C bedeckt
Ortszeit Temperatur Wetter
Mi, 19.09. 7:30 14.2° C leicht bewölkt
Mi, 19.09. 7:20 14.2° C leicht bewölkt
Mi, 19.09. 7:10 14.2° C wolkenlos
Mi, 19.09. 7:00 13.8° C fast wolkenlos
Mi, 19.09. 6:50 13.8° C fast wolkenlos
Mi, 19.09. 6:40 13.8° C leicht bewölkt
Mi, 19.09. 6:30 14.0° C wolkig
Mi, 19.09. 6:00 13.7° C wolkig
Mi, 19.09. 5:30 14.5° C leicht bewölkt
Mi, 19.09. 5:00 14.3° C fast wolkenlos
Mi, 19.09. 4:30 14.8° C leicht bewölkt
Ortszeit Relative Feuchte Sichtweite
Mi, 19.09. 2:00 94% 7 km
Di, 18.09. 20:00 39% 40 km
Di, 18.09. 14:00 33% 9 km
Di, 18.09. 8:00 74% 27 km
Di, 18.09. 2:00 89% 17 km
Mo, 17.09. 20:00 77% 30 km
Mo, 17.09. 14:00 49% 18 km
Mo, 17.09. 8:00 70% 30 km
Ortszeit Relative Feuchte Sichtweite
Mi, 19.09. 7:30 90% 13 km
Mi, 19.09. 7:20 90% -
Mi, 19.09. 7:10 90% -
Mi, 19.09. 7:00 89% 14 km
Mi, 19.09. 6:50 89% -
Mi, 19.09. 6:40 90% -
Mi, 19.09. 6:30 89% 14 km
Mi, 19.09. 6:00 90% 13 km
Mi, 19.09. 5:30 89% 14 km
Mi, 19.09. 5:00 90% 13 km
Mi, 19.09. 4:30 90% 14 km
Ortszeit Niederschlagsmenge Niederschlagsart
Mi, 19.09. 2:00 0.0 l/m2 in 6 Std. -
Di, 18.09. 20:00 0.0 l/m2 in 12 Std. -
Di, 18.09. 14:00 0.0 l/m2 in 6 Std. -
Di, 18.09. 8:00 0.0 l/m2 in 12 Std. -
Di, 18.09. 2:00 0.0 l/m2 in 6 Std. -
Mo, 17.09. 20:00 0.0 l/m2 in 12 Std. -
Mo, 17.09. 14:00 0.0 l/m2 in 6 Std. -
Mo, 17.09. 8:00 0.0 l/m2 in 12 Std. -
Ortszeit Niederschlagsmenge Niederschlagsart
Mi, 19.09. 7:30 0.0 l/m2 in 1 Std. -
Mi, 19.09. 7:20 keine Meldung -
Mi, 19.09. 7:10 keine Meldung -
Mi, 19.09. 7:00 0.0 l/m2 in 1 Std. -
Mi, 19.09. 6:50 keine Meldung -
Mi, 19.09. 6:40 keine Meldung -
Mi, 19.09. 6:30 0.0 l/m2 in 1 Std. -
Mi, 19.09. 6:00 0.0 l/m2 in 1 Std. -
Mi, 19.09. 5:30 0.0 l/m2 in 1 Std. -
Mi, 19.09. 5:00 0.0 l/m2 in 1 Std. -
Mi, 19.09. 4:30 0.0 l/m2 in 1 Std. -
Ortszeit Stärke Spitze Richtung
km/h Bft. km/h Grad Sektor
Mi, 19.09. 2:00 4 1 40 220° SW
Di, 18.09. 20:00 9 2 43 150° SO
Di, 18.09. 14:00 22 4 43 170° S
Di, 18.09. 8:00 11 2 14 150° SO
Di, 18.09. 2:00 7 2 11 160° S
Mo, 17.09. 20:00 4 1 25 90° O
Mo, 17.09. 14:00 15 3 31 250° W
Mo, 17.09. 8:00 11 2 18 200° S
Ortszeit Stärke Spitze Richtung
km/h Bft. km/h Grad Sektor
Mi, 19.09. 7:30 9 2 13 230° SW
Mi, 19.09. 7:20 9 2 - 230° SW
Mi, 19.09. 7:10 9 2 - 220° SW
Mi, 19.09. 7:00 9 2 15 240° SW
Mi, 19.09. 6:50 9 2 - 240° SW
Mi, 19.09. 6:40 9 2 - 240° SW
Mi, 19.09. 6:30 9 2 15 240° SW
Mi, 19.09. 6:00 9 2 17 240° SW
Mi, 19.09. 5:30 11 2 18 230° SW
Mi, 19.09. 5:00 9 2 19 230° SW
Mi, 19.09. 4:30 11 2 17 240° SW
Ortszeit Untergrenze Bedeckung Gattung
total tief tief mittel hoch
Mi, 19.09. 2:00 - 0/8 0/8 - - -
Di, 18.09. 20:00 - 0/8 0/8 - - -
Di, 18.09. 14:00 10500 m 5/8 0/8 - - -
Di, 18.09. 8:00 9000 m 8/8 0/8 - - -
Di, 18.09. 2:00 - - - - - -
Mo, 17.09. 20:00 - - - - - -
Mo, 17.09. 14:00 - - - - - -
Mo, 17.09. 8:00 3300 m 8/8 8/8 - - -
Ortszeit Bedeckungsgrad in Achtel und Wolkenuntergrenze
Mi, 19.09. 7:30 3(8100m)
Mi, 19.09. 7:20 3(8100m)
Mi, 19.09. 7:10 keine Wolken
Mi, 19.09. 7:00 1(2700m)
Mi, 19.09. 6:50 1(2700m) 1(3600m)
Mi, 19.09. 6:40 1(2700m) 2(3600m)
Mi, 19.09. 6:30 1(2100m) 2(3600m) 9
Mi, 19.09. 6:00 2(3000m) 3(9000m) 9
Mi, 19.09. 5:30 2(3000m) 9 9
Mi, 19.09. 5:00 1(3000m)
Mi, 19.09. 4:30 2(3000m)
Ortszeit Luftdruck NN (hPa) Tendenz (hPa in 3 Std.)
Mi, 19.09. 2:00 1014 + 1,4
Di, 18.09. 20:00 1011 0,0
Di, 18.09. 14:00 1013 - 1,9
Di, 18.09. 8:00 1015 - 0,6
Di, 18.09. 2:00 1017 - 1,0
Mo, 17.09. 20:00 1018 - 0,1
Mo, 17.09. 14:00 1018 - 0,8
Mo, 17.09. 8:00 1018 + 0,3
Ortszeit Luftdruck NN (hPa) Tendenz (hPa in 3 Std.)
Mi, 19.09. 7:30 1016 + 1,1
Mi, 19.09. 7:20 1016 keine Meldung
Mi, 19.09. 7:10 1016 keine Meldung
Mi, 19.09. 7:00 1016 + 1,0
Mi, 19.09. 6:50 1016 keine Meldung
Mi, 19.09. 6:40 1016 keine Meldung
Mi, 19.09. 6:30 1015 + 1,1
Mi, 19.09. 6:00 1015 + 1,2
Mi, 19.09. 5:30 1015 + 1,1
Mi, 19.09. 5:00 1015 + 1,2
Mi, 19.09. 4:30 1015 + 1,1
Ortszeit Schneehöhe (cm)
Mi, 19.09. 2:00 -
Di, 18.09. 20:00 -
Di, 18.09. 14:00 -
Di, 18.09. 8:00 -
Di, 18.09. 2:00 -
Mo, 17.09. 20:00 -
Mo, 17.09. 14:00 -
Mo, 17.09. 8:00 -
Ortszeit Schneehöhe (cm)
Mi, 19.09. 7:30 -
Mi, 19.09. 7:20 -
Mi, 19.09. 7:10 -
Mi, 19.09. 7:00 -
Mi, 19.09. 6:50 -
Mi, 19.09. 6:40 -
Mi, 19.09. 6:30 -
Mi, 19.09. 6:00 -
Mi, 19.09. 5:30 -
Mi, 19.09. 5:00 -
Mi, 19.09. 4:30 -
Link zu dieser Seite / Seite empfehlen

Das Wetter in ...